Time;durP1;ratioP1;P1;durP2;ratioP2;P2;SDS_P1;SDS_P2;PMS_P1;PMS_P2;Temp;Humidity;BMP_temperature;BMP_pressure;BME280_temperature;BME280_humidity;BME280_pressure;Samples;Min_cycle;Max_cycle;Signal;HPM_P1;HPM_P2
2022/11/28 00:01:20;;;;;;;;;;;;;;;8.52;61.50;100525.97;5110886;28;19985;-83
2022/11/28 00:03:45;;;;;;;;;;;;;;;8.52;62.14;100520.72;5121507;27;19923;-83
2022/11/28 00:06:11;;;;;;;;;;;;;;;8.45;61.35;100521.53;5131528;27;19964;-83
2022/11/28 00:08:36;;;;;;;;;;;;;;;8.60;61.16;100522.53;5130756;27;20316;-83
2022/11/28 00:11:03;;;;;;;;;;;;;;;8.41;61.73;100520.59;5130531;27;19954;-84
2022/11/28 00:13:28;;;;;;;;;;;;;;;8.52;61.37;100518.97;5112588;27;19931;-83
2022/11/28 00:16:03;;;;;;;;;;;;;;;8.35;61.55;100515.31;5110653;28;19915;-83
2022/11/28 00:18:29;;;;;;;;;;;;;;;8.23;61.90;100522.25;5110758;27;19919;-83
2022/11/28 00:21:01;;;;;;;;;;;;;;;8.07;62.74;100521.22;5092203;28;20495;-83
2022/11/28 00:23:27;;;;;;;;;;;;;;;8.02;62.36;100519.44;5112546;28;19916;-83
2022/11/28 00:25:56;;;;;;;;;;;;;;;7.74;63.95;100519.19;5110772;28;19926;-83
2022/11/28 00:28:21;;;;;;;;;;;;;;;7.71;64.19;100520.03;5110784;28;19915;-83
2022/11/28 00:30:46;;;;;;;;;;;;;;;7.51;64.50;100519.81;5110302;28;19915;-83
2022/11/28 00:33:12;;;;;;;;;;;;;;;7.57;64.71;100524.28;5111952;27;19915;-83
2022/11/28 00:35:37;;;;;;;;;;;;;;;7.86;63.96;100521.03;5111179;27;19916;-83
2022/11/28 00:38:02;;;;;;;;;;;;;;;7.85;63.91;100521.91;5130048;27;19933;-84
2022/11/28 00:40:28;;;;;;;;;;;;;;;7.89;64.82;100521.06;5130564;27;19922;-84
2022/11/28 00:42:53;;;;;;;;;;;;;;;7.77;64.91;100521.84;5130717;27;19954;-83
2022/11/28 00:45:18;;;;;;;;;;;;;;;7.88;64.74;100514.94;5130902;27;19916;-84
2022/11/28 00:47:45;;;;;;;;;;;;;;;7.76;64.80;100509.56;5130560;27;20154;-83
2022/11/28 00:50:10;;;;;;;;;;;;;;;7.46;65.70;100513.66;5111162;27;19916;-84
2022/11/28 00:52:36;;;;;;;;;;;;;;;7.28;67.59;100508.19;5110191;28;19992;-83
2022/11/28 00:55:01;;;;;;;;;;;;;;;7.32;67.68;100505.63;5091556;28;19962;-82
2022/11/28 00:57:27;;;;;;;;;;;;;;;7.42;68.14;100503.97;5109993;28;19923;-83
2022/11/28 00:59:52;;;;;;;;;;;;;;;7.77;67.37;100499.94;5109858;28;20294;-83
2022/11/28 01:02:17;;;;;;;;;;;;;;;7.48;68.21;100505.78;5109927;28;19938;-86
2022/11/28 01:04:42;;;;;;;;;;;;;;;7.32;69.11;100504.72;5129973;27;19961;-86
2022/11/28 01:07:08;;;;;;;;;;;;;;;7.25;69.87;100508.16;5130224;27;20456;-86
2022/11/28 01:09:33;;;;;;;;;;;;;;;7.21;69.87;100507.22;5130118;27;19919;-86
2022/11/28 01:11:58;;;;;;;;;;;;;;;7.37;69.31;100510.03;5129744;27;20056;-85
2022/11/28 01:14:24;;;;;;;;;;;;;;;7.37;70.19;100503.06;5129935;27;19932;-86
2022/11/28 01:16:50;;;;;;;;;;;;;;;7.40;70.50;100503.09;5109412;28;19915;-86
2022/11/28 01:19:16;;;;;;;;;;;;;;;7.31;70.11;100510.84;5106831;27;19927;-86
2022/11/28 01:21:41;;;;;;;;;;;;;;;7.45;70.25;100506.63;5130011;27;19957;-86
2022/11/28 01:24:07;;;;;;;;;;;;;;;7.32;70.79;100503.00;5129663;27;19922;-84
2022/11/28 01:26:32;;;;;;;;;;;;;;;6.91;72.34;100503.38;5130989;27;19915;-85
2022/11/28 01:28:59;;;;;;;;;;;;;;;7.09;72.18;100501.84;5127657;27;19942;-82
2022/11/28 01:31:25;;;;;;;;;;;;;;;7.16;72.80;100499.28;5109064;28;19975;-84
2022/11/28 01:33:51;;;;;;;;;;;;;;;6.82;73.62;100505.88;5116899;27;19937;-83
2022/11/28 01:36:17;;;;;;;;;;;;;;;6.83;74.20;100505.03;5109298;28;19923;-82
2022/11/28 01:38:43;;;;;;;;;;;;;;;6.85;74.25;100502.44;5108997;28;19915;-85
2022/11/28 01:41:09;;;;;;;;;;;;;;;6.55;75.42;100502.03;5110501;28;19989;-86
2022/11/28 01:43:35;;;;;;;;;;;;;;;6.64;75.54;100506.50;5090993;28;20440;-83
2022/11/28 01:46:01;;;;;;;;;;;;;;;6.82;75.67;100503.25;5111288;27;19966;-83
2022/11/28 01:48:30;;;;;;;;;;;;;;;6.68;75.84;100507.44;5109975;28;19929;-82
2022/11/28 01:50:57;;;;;;;;;;;;;;;6.71;75.28;100497.88;5110107;28;19957;-84
2022/11/28 01:53:25;;;;;;;;;;;;;;;6.54;76.29;100491.53;5110311;28;19919;-82
2022/11/28 01:55:54;;;;;;;;;;;;;;;6.57;76.72;100489.81;5109227;28;19916;-82
2022/11/28 01:58:20;;;;;;;;;;;;;;;6.43;77.35;100492.22;5113070;27;20416;-82
2022/11/28 02:00:45;;;;;;;;;;;;;;;6.30;77.55;100486.78;5113086;28;19942;-82
2022/11/28 02:03:13;;;;;;;;;;;;;;;6.35;77.70;100482.50;5113443;28;19916;-82
2022/11/28 02:05:39;;;;;;;;;;;;;;;6.82;76.46;100483.16;5127236;27;19943;-82
2022/11/28 02:08:05;;;;;;;;;;;;;;;6.90;75.89;100488.50;5133939;27;19951;-82
2022/11/28 02:10:44;;;;;;;;;;;;;;;6.93;74.99;100485.91;5134080;27;19923;-81
2022/11/28 02:13:12;;;;;;;;;;;;;;;6.88;75.21;100490.22;5133976;27;19916;-82
2022/11/28 02:15:57;;;;;;;;;;;;;;;6.84;75.29;100483.16;5133915;27;20278;-83
2022/11/28 02:18:32;;;;;;;;;;;;;;;7.25;74.68;100479.28;5133115;27;19915;-84
2022/11/28 02:21:03;;;;;;;;;;;;;;;7.27;74.51;100475.81;5133543;27;20011;-83
2022/11/28 02:23:31;;;;;;;;;;;;;;;7.26;74.26;100473.16;5133281;27;19917;-84
2022/11/28 02:26:15;;;;;;;;;;;;;;;7.30;74.65;100467.97;5133341;27;19915;-83
2022/11/28 02:29:01;;;;;;;;;;;;;;;7.48;74.05;100474.28;5112676;27;20458;-83
2022/11/28 02:31:32;;;;;;;;;;;;;;;7.49;74.63;100473.41;5132791;27;19926;-84
2022/11/28 02:34:06;;;;;;;;;;;;;;;7.37;74.23;100468.03;5132310;27;19916;-83
2022/11/28 02:36:38;;;;;;;;;;;;;;;7.39;74.07;100469.81;5133305;27;19915;-84
2022/11/28 02:39:12;;;;;;;;;;;;;;;7.31;74.33;100468.88;5133121;27;19912;-84
2022/11/28 02:41:37;;;;;;;;;;;;;;;7.16;75.17;100477.44;5133241;27;19915;-84
2022/11/28 02:44:06;;;;;;;;;;;;;;;7.27;74.23;100474.94;5133060;27;19938;-83
2022/11/28 02:46:37;;;;;;;;;;;;;;;7.41;73.80;100473.31;5132130;27;19961;-84
2022/11/28 02:49:02;;;;;;;;;;;;;;;7.35;74.48;100479.41;5133035;27;20389;-83
2022/11/28 02:51:32;;;;;;;;;;;;;;;7.40;74.76;100478.56;5114087;27;19923;-83
2022/11/28 02:53:58;;;;;;;;;;;;;;;7.39;74.69;100477.69;5132941;27;20485;-84
2022/11/28 02:56:24;;;;;;;;;;;;;;;7.47;75.42;100478.63;5132927;27;19923;-83
2022/11/28 02:58:49;;;;;;;;;;;;;;;7.39;76.13;100485.56;5132692;27;19930;-84
2022/11/28 03:01:19;;;;;;;;;;;;;;;7.37;76.07;100479.44;5132369;27;19919;-84
2022/11/28 03:03:55;;;;;;;;;;;;;;;7.63;75.31;100474.44;5130088;27;19950;-84
2022/11/28 03:06:34;;;;;;;;;;;;;;;7.17;76.18;100482.69;5132856;27;19945;-83
2022/11/28 03:09:02;;;;;;;;;;;;;;;7.37;75.47;100489.94;5133006;27;19916;-83
2022/11/28 03:11:36;;;;;;;;;;;;;;;7.49;74.14;100482.19;5125659;27;19919;-83
2022/11/28 03:14:22;;;;;;;;;;;;;;;7.60;74.41;100474.41;5114578;28;19912;-83
2022/11/28 03:16:54;;;;;;;;;;;;;;;7.58;74.57;100473.50;5111427;28;20505;-83
2022/11/28 03:19:28;;;;;;;;;;;;;;;7.55;75.11;100480.47;5113477;28;19916;-83
2022/11/28 03:22:00;;;;;;;;;;;;;;;7.63;75.15;100477.06;5113040;27;20465;-83
2022/11/28 03:24:26;;;;;;;;;;;;;;;7.68;74.57;100477.09;5113149;28;19919;-83
2022/11/28 03:26:54;;;;;;;;;;;;;;;7.73;73.74;100475.41;5111501;28;20047;-83
2022/11/28 03:29:22;;;;;;;;;;;;;;;7.64;74.20;100470.94;5116312;27;19923;-83
2022/11/28 03:31:52;;;;;;;;;;;;;;;7.68;74.82;100475.34;5112799;27;19943;-83
2022/11/28 03:34:19;;;;;;;;;;;;;;;7.83;74.29;100479.88;5111335;28;19923;-83
2022/11/28 03:36:48;;;;;;;;;;;;;;;7.79;74.35;100475.44;5111755;28;20420;-83
2022/11/28 03:39:18;;;;;;;;;;;;;;;7.83;74.05;100473.72;5122446;27;19926;-83
2022/11/28 03:41:53;;;;;;;;;;;;;;;7.88;73.84;100472.03;5111225;28;19916;-83
2022/11/28 03:44:22;;;;;;;;;;;;;;;7.83;73.84;100472.00;5111439;28;19915;-83
2022/11/28 03:46:49;;;;;;;;;;;;;;;7.74;74.74;100471.00;5111105;28;19915;-84
2022/11/28 03:49:19;;;;;;;;;;;;;;;7.69;75.07;100470.97;5111480;28;19915;-82
2022/11/28 03:51:54;;;;;;;;;;;;;;;7.84;74.88;100470.22;5113152;28;20381;-83
2022/11/28 03:54:19;;;;;;;;;;;;;;;7.82;74.39;100478.09;5113745;27;20002;-83
2022/11/28 03:56:51;;;;;;;;;;;;;;;7.88;74.17;100472.03;5112189;27;20068;-84
2022/11/28 03:59:24;;;;;;;;;;;;;;;7.76;74.21;100471.94;5111328;28;20487;-83
2022/11/28 04:01:55;;;;;;;;;;;;;;;7.51;74.94;100469.94;5113420;28;19912;-83
2022/11/28 04:04:28;;;;;;;;;;;;;;;7.45;75.16;100472.50;5120822;27;19922;-83
2022/11/28 04:07:00;;;;;;;;;;;;;;;7.26;75.80;100481.03;5111806;27;19934;-83
2022/11/28 04:09:36;;;;;;;;;;;;;;;7.10;76.53;100477.38;5092196;28;20354;-83
2022/11/28 04:12:13;;;;;;;;;;;;;;;7.12;77.09;100479.16;5112866;27;19963;-83
2022/11/28 04:14:44;;;;;;;;;;;;;;;7.11;77.55;100479.13;5131267;27;20365;-84
2022/11/28 04:17:14;;;;;;;;;;;;;;;7.08;78.06;100479.97;5127230;27;20448;-84
2022/11/28 04:19:47;;;;;;;;;;;;;;;7.13;77.97;100483.53;5092249;28;20397;-83
2022/11/28 04:22:12;;;;;;;;;;;;;;;6.81;78.97;100494.50;5094839;27;19912;-82
2022/11/28 04:24:44;;;;;;;;;;;;;;;7.00;78.97;100492.13;5122487;27;19976;-83
2022/11/28 04:27:12;;;;;;;;;;;;;;;6.69;79.67;100498.69;5115860;27;19920;-83
2022/11/28 04:29:46;;;;;;;;;;;;;;;6.77;80.30;100499.69;5109909;27;20396;-85
2022/11/28 04:32:12;;;;;;;;;;;;;;;6.68;80.92;100496.97;5110833;28;19968;-83
2022/11/28 04:34:40;;;;;;;;;;;;;;;6.98;79.59;100510.47;5128046;27;19927;-85
2022/11/28 04:37:06;;;;;;;;;;;;;;;6.63;80.44;100502.13;5116677;27;20027;-84
2022/11/28 04:39:33;;;;;;;;;;;;;;;6.65;80.64;100499.53;5119575;27;19918;-84
2022/11/28 04:42:05;;;;;;;;;;;;;;;6.68;80.95;100504.81;5125920;27;19916;-83
2022/11/28 04:44:36;;;;;;;;;;;;;;;6.85;79.64;100503.28;5112754;28;19912;-86
2022/11/28 04:47:03;;;;;;;;;;;;;;;6.95;79.76;100505.19;5112214;28;19912;-84
2022/11/28 04:49:29;;;;;;;;;;;;;;;6.89;79.37;100515.59;5113607;27;19916;-84
2022/11/28 04:52:08;;;;;;;;;;;;;;;6.77;80.16;100504.94;5112448;28;19923;-84
2022/11/28 04:54:41;;;;;;;;;;;;;;;6.76;79.92;100506.66;5125349;27;19915;-82
2022/11/28 04:57:09;;;;;;;;;;;;;;;6.72;79.82;100510.13;5118186;27;19971;-84
2022/11/28 04:59:34;;;;;;;;;;;;;;;6.90;78.86;100503.34;5126700;27;19933;-84
2022/11/28 05:02:04;;;;;;;;;;;;;;;6.97;78.50;100507.81;5107161;27;19923;-87
2022/11/28 05:04:30;;;;;;;;;;;;;;;6.90;78.55;100511.22;5127829;27;19915;-84
2022/11/28 05:07:02;;;;;;;;;;;;;;;6.92;78.87;100505.16;5130409;27;19990;-85
2022/11/28 05:09:27;;;;;;;;;;;;;;;6.99;78.45;100514.84;5128855;27;19923;-85
2022/11/28 05:11:53;;;;;;;;;;;;;;;7.06;78.20;100505.31;5123009;27;19912;-87
2022/11/28 05:14:18;;;;;;;;;;;;;;;7.08;78.55;100514.09;5128723;27;20023;-85
2022/11/28 05:16:45;;;;;;;;;;;;;;;7.05;78.52;100518.41;5128988;27;20486;-86
2022/11/28 05:19:10;;;;;;;;;;;;;;;7.15;78.08;100520.28;5129662;27;20076;-86
2022/11/28 05:21:35;;;;;;;;;;;;;;;7.22;77.58;100511.63;5125654;27;20014;-85
2022/11/28 05:24:01;;;;;;;;;;;;;;;6.91;78.54;100508.63;5121849;27;20017;-86
2022/11/28 05:26:30;;;;;;;;;;;;;;;6.84;79.36;100509.38;5123979;27;19972;-87
2022/11/28 05:28:57;;;;;;;;;;;;;;;6.87;79.03;100504.19;5132801;27;19960;-86
2022/11/28 05:31:22;;;;;;;;;;;;;;;6.73;78.68;100506.63;5104129;27;20302;-87
2022/11/28 05:33:48;;;;;;;;;;;;;;;6.40;79.76;100500.06;5132302;27;19915;-89
2022/11/28 05:36:14;;;;;;;;;;;;;;;6.56;80.26;100502.91;5112129;28;20014;-87
2022/11/28 05:38:39;;;;;;;;;;;;;;;6.51;80.22;100494.97;5097793;28;19915;-90
2022/11/28 05:41:05;;;;;;;;;;;;;;;6.43;80.60;100509.72;5131192;27;19976;-86
2022/11/28 05:43:30;;;;;;;;;;;;;;;6.52;80.59;100498.47;5132562;27;20372;-87
2022/11/28 05:45:56;;;;;;;;;;;;;;;6.33;81.04;100505.19;5131372;27;20300;-85
2022/11/28 05:48:22;;;;;;;;;;;;;;;6.42;80.47;100494.84;5133237;27;19915;-85
2022/11/28 05:50:49;;;;;;;;;;;;;;;6.47;80.62;100501.00;5132147;27;19923;-85
2022/11/28 05:53:15;;;;;;;;;;;;;;;6.70;80.57;100508.34;5130116;28;20277;-85
2022/11/28 05:55:40;;;;;;;;;;;;;;;6.84;79.62;100513.75;5130289;27;19920;-85
2022/11/28 05:58:06;;;;;;;;;;;;;;;6.58;80.22;100512.56;5124562;28;19916;-85
2022/11/28 06:00:31;;;;;;;;;;;;;;;6.65;80.17;100510.03;5128707;28;19911;-86
2022/11/28 06:02:57;;;;;;;;;;;;;;;6.49;80.62;100511.53;5126849;27;20055;-85
2022/11/28 06:05:22;;;;;;;;;;;;;;;6.62;80.87;100514.34;5123210;28;20009;-87
2022/11/28 06:07:49;;;;;;;;;;;;;;;6.70;80.49;100506.59;5111276;28;19919;-88
2022/11/28 06:10:14;;;;;;;;;;;;;;;6.68;80.56;100513.56;5114851;28;19919;-86
2022/11/28 06:12:40;;;;;;;;;;;;;;;6.61;80.70;100516.94;5111881;28;20282;-85
2022/11/28 06:15:06;;;;;;;;;;;;;;;6.71;80.52;100520.59;5111182;28;19918;-85
2022/11/28 06:17:31;;;;;;;;;;;;;;;6.51;80.97;100515.06;5118213;27;20414;-85
2022/11/28 06:19:56;;;;;;;;;;;;;;;6.54;81.32;100515.97;5124379;28;19915;-85
2022/11/28 06:22:22;;;;;;;;;;;;;;;6.51;81.09;100518.56;5122114;28;19918;-87
2022/11/28 06:24:50;;;;;;;;;;;;;;;6.66;80.71;100522.25;5118285;28;20389;-85
2022/11/28 06:27:15;;;;;;;;;;;;;;;6.48;80.75;100518.50;5117523;28;20499;-86
2022/11/28 06:29:40;;;;;;;;;;;;;;;6.40;82.17;100523.63;5111227;28;20001;-85
2022/11/28 06:32:06;;;;;;;;;;;;;;;6.39;81.73;100521.88;5110412;28;20060;-86
2022/11/28 06:34:31;;;;;;;;;;;;;;;6.41;82.58;100520.16;5130207;28;20412;-84
2022/11/28 06:36:56;;;;;;;;;;;;;;;6.77;81.90;100518.06;5119874;28;19919;-86
2022/11/28 06:39:22;;;;;;;;;;;;;;;6.69;81.75;100520.56;5110331;28;20378;-86
2022/11/28 06:41:47;;;;;;;;;;;;;;;6.48;82.85;100521.13;5128713;27;19919;-85
2022/11/28 06:44:13;;;;;;;;;;;;;;;6.53;81.59;100523.81;5124936;27;19915;-86
2022/11/28 06:46:39;;;;;;;;;;;;;;;6.48;82.71;100523.75;5123480;27;19918;-85
2022/11/28 06:49:04;;;;;;;;;;;;;;;6.42;82.63;100521.03;5134963;27;19911;-85
2022/11/28 06:51:29;;;;;;;;;;;;;;;6.47;82.85;100516.75;5134657;27;19919;-87
2022/11/28 06:53:55;;;;;;;;;;;;;;;6.36;83.35;100521.81;5134670;27;19915;-86
2022/11/28 06:56:20;;;;;;;;;;;;;;;6.08;83.71;100521.38;5135139;27;19911;-87
2022/11/28 06:58:46;;;;;;;;;;;;;;;6.44;83.45;100522.84;5118906;27;19916;-86
2022/11/28 07:01:19;;;;;;;;;;;;;;;6.72;83.02;100524.97;5114407;28;19916;-86
2022/11/28 07:03:44;;;;;;;;;;;;;;;6.22;83.82;100524.22;5128440;27;19918;-86
2022/11/28 07:06:10;;;;;;;;;;;;;;;6.45;84.00;100521.09;5134749;27;20005;-86
2022/11/28 07:08:35;;;;;;;;;;;;;;;6.55;83.75;100525.63;5131151;27;19923;-86
2022/11/28 07:11:07;;;;;;;;;;;;;;;6.44;83.34;100527.19;5134701;27;19997;-86
2022/11/28 07:13:32;;;;;;;;;;;;;;;6.36;84.29;100523.56;5134456;27;19911;-86
2022/11/28 07:15:57;;;;;;;;;;;;;;;6.50;83.96;100522.03;5119959;27;20013;-86
2022/11/28 07:18:22;;;;;;;;;;;;;;;6.63;84.05;100512.63;5132556;27;20353;-85
2022/11/28 07:20:48;;;;;;;;;;;;;;;6.35;84.30;100513.94;5133028;27;20457;-85
2022/11/28 07:23:13;;;;;;;;;;;;;;;6.04;84.77;100505.59;5115665;27;19932;-86
2022/11/28 07:25:39;;;;;;;;;;;;;;;6.06;84.51;100514.38;5132906;27;19930;-86
2022/11/28 07:28:04;;;;;;;;;;;;;;;6.17;84.73;100499.69;5128323;27;20037;-85
2022/11/28 07:30:29;;;;;;;;;;;;;;;6.13;84.77;100503.13;5134645;27;20006;-87
2022/11/28 07:32:55;;;;;;;;;;;;;;;6.10;85.19;100505.69;5133920;27;19911;-86
2022/11/28 07:35:20;;;;;;;;;;;;;;;6.08;85.83;100510.91;5114234;27;20025;-85
2022/11/28 07:37:45;;;;;;;;;;;;;;;6.07;86.12;100511.78;5134386;27;19912;-86
2022/11/28 07:40:12;;;;;;;;;;;;;;;6.23;85.93;100502.41;5135066;27;19925;-86
2022/11/28 07:42:37;;;;;;;;;;;;;;;6.33;84.42;100502.56;5134015;27;19912;-86
2022/11/28 07:45:03;;;;;;;;;;;;;;;6.42;84.61;100507.94;5134743;27;19916;-86
2022/11/28 07:47:29;;;;;;;;;;;;;;;6.34;84.30;100497.34;5134201;27;19918;-86
2022/11/28 07:49:54;;;;;;;;;;;;;;;6.41;84.74;100501.81;5133024;27;20321;-85
2022/11/28 07:52:20;;;;;;;;;;;;;;;6.58;84.39;100504.69;5115913;27;19916;-86
2022/11/28 07:54:47;;;;;;;;;;;;;;;6.37;83.35;100502.63;5119112;27;19915;-85
2022/11/28 07:57:12;;;;;;;;;;;;;;;6.19;84.56;100502.34;5133662;27;20389;-85
2022/11/28 07:59:37;;;;;;;;;;;;;;;6.41;83.26;100498.31;5133994;27;20010;-85
2022/11/28 08:02:04;;;;;;;;;;;;;;;6.19;84.28;100504.97;5133683;27;19915;-84
2022/11/28 08:04:29;;;;;;;;;;;;;;;6.32;83.91;100499.06;5134070;27;20010;-85
2022/11/28 08:06:55;;;;;;;;;;;;;;;6.12;85.81;100498.75;5133607;27;20366;-85
2022/11/28 08:09:21;;;;;;;;;;;;;;;6.47;84.49;100501.00;5131608;27;20020;-85
2022/11/28 08:11:46;;;;;;;;;;;;;;;6.32;84.07;100501.69;5134280;27;20002;-85
2022/11/28 08:14:13;;;;;;;;;;;;;;;6.25;83.79;100500.69;5134115;27;19911;-84
2022/11/28 08:16:43;;;;;;;;;;;;;;;6.34;83.31;100496.47;5132653;27;20392;-84
2022/11/28 08:19:09;;;;;;;;;;;;;;;6.34;83.53;100496.47;5137851;27;19911;-82
2022/11/28 08:21:37;;;;;;;;;;;;;;;6.21;83.68;100500.63;5143511;27;20393;-80
2022/11/28 08:24:04;;;;;;;;;;;;;;;5.84;83.79;100495.66;5149805;27;19922;-85
2022/11/28 08:26:30;;;;;;;;;;;;;;;5.86;84.63;100493.94;5131616;27;19964;-85
2022/11/28 08:28:56;;;;;;;;;;;;;;;5.98;84.15;100493.28;5145001;27;19961;-84
2022/11/28 08:31:23;;;;;;;;;;;;;;;5.91;84.81;100489.63;5153851;27;19960;-85
2022/11/28 08:33:49;;;;;;;;;;;;;;;6.06;85.73;100489.06;5153940;27;19911;-83
2022/11/28 08:36:15;;;;;;;;;;;;;;;6.00;84.97;100482.84;5138799;27;19926;-86
2022/11/28 08:38:42;;;;;;;;;;;;;;;6.16;85.06;100494.44;5126495;27;19950;-85
2022/11/28 08:41:12;;;;;;;;;;;;;;;6.26;85.19;100496.34;5123975;27;19930;-85
2022/11/28 08:43:38;;;;;;;;;;;;;;;6.49;86.17;100491.44;5132204;27;19916;-85
2022/11/28 08:46:04;;;;;;;;;;;;;;;6.13;85.31;100487.41;5133232;27;19915;-86
2022/11/28 08:48:30;;;;;;;;;;;;;;;6.25;85.60;100482.34;5133151;27;19968;-85
2022/11/28 08:50:55;;;;;;;;;;;;;;;6.32;84.20;100491.22;5132833;27;19915;-86
2022/11/28 08:53:21;;;;;;;;;;;;;;;5.88;85.07;100480.88;5116101;27;19972;-87
2022/11/28 08:55:47;;;;;;;;;;;;;;;5.97;85.66;100482.78;5114064;27;19923;-86
2022/11/28 08:58:12;;;;;;;;;;;;;;;6.04;85.11;100477.69;5131212;27;19934;-86
2022/11/28 09:00:38;;;;;;;;;;;;;;;6.23;84.49;100470.09;5131905;27;20476;-84
2022/11/28 09:03:03;;;;;;;;;;;;;;;6.10;84.12;100469.00;5132560;27;19922;-85
2022/11/28 09:05:29;;;;;;;;;;;;;;;6.23;85.08;100470.97;5131538;27;20399;-85
2022/11/28 09:07:55;;;;;;;;;;;;;;;6.12;85.61;100464.69;5130373;27;19923;-85
2022/11/28 09:10:20;;;;;;;;;;;;;;;5.92;85.35;100467.84;5128957;27;20407;-85
2022/11/28 09:12:45;;;;;;;;;;;;;;;6.08;85.73;100457.63;5131644;27;19920;-84
2022/11/28 09:15:11;;;;;;;;;;;;;;;6.20;84.76;100460.44;5131277;27;19915;-85
2022/11/28 09:17:36;;;;;;;;;;;;;;;6.32;84.37;100445.75;5132097;27;20373;-86
2022/11/28 09:20:02;;;;;;;;;;;;;;;6.12;83.44;100459.47;5132773;27;19915;-85
2022/11/28 09:22:28;;;;;;;;;;;;;;;5.85;84.78;100452.00;5134840;27;19971;-86
2022/11/28 09:24:53;;;;;;;;;;;;;;;6.15;86.17;100454.28;5126663;27;19912;-85
2022/11/28 09:27:18;;;;;;;;;;;;;;;5.95;84.62;100450.41;5122048;27;19922;-85
2022/11/28 09:29:44;;;;;;;;;;;;;;;5.72;85.72;100448.31;5131626;27;19912;-86
2022/11/28 09:32:09;;;;;;;;;;;;;;;6.13;86.09;100440.25;5130591;27;19915;-85
2022/11/28 09:34:34;;;;;;;;;;;;;;;6.13;85.04;100442.88;5131906;27;19915;-86
2022/11/28 09:37:00;;;;;;;;;;;;;;;6.42;85.21;100438.03;5131654;27;19911;-86
2022/11/28 09:39:26;;;;;;;;;;;;;;;6.35;84.95;100440.56;5123521;27;19915;-86
2022/11/28 09:41:51;;;;;;;;;;;;;;;6.43;84.32;100433.72;5111622;28;20369;-85
2022/11/28 09:44:21;;;;;;;;;;;;;;;6.24;83.45;100433.44;5111955;27;19920;-86
2022/11/28 09:46:48;;;;;;;;;;;;;;;6.36;84.40;100423.97;5114959;28;19918;-84
2022/11/28 09:49:20;;;;;;;;;;;;;;;6.42;84.29;100422.31;5131599;27;19912;-84
2022/11/28 09:51:55;;;;;;;;;;;;;;;6.27;84.01;100420.38;5130752;27;19976;-85
2022/11/28 09:54:26;;;;;;;;;;;;;;;6.49;84.10;100418.06;5127659;28;19930;-87
2022/11/28 09:56:52;;;;;;;;;;;;;;;6.71;85.94;100410.47;5130403;28;19916;-85
2022/11/28 09:59:25;;;;;;;;;;;;;;;6.71;83.24;100410.47;5129536;28;19920;-86
2022/11/28 10:02:02;;;;;;;;;;;;;;;6.57;83.88;100410.28;5123481;28;20460;-86
2022/11/28 10:04:40;;;;;;;;;;;;;;;6.60;82.74;100405.09;5122957;28;20444;-85
2022/11/28 10:07:22;;;;;;;;;;;;;;;6.60;82.40;100405.97;5124690;28;19912;-85
2022/11/28 10:09:51;;;;;;;;;;;;;;;6.93;82.85;100403.72;5120541;28;19911;-84
2022/11/28 10:12:42;;;;;;;;;;;;;;;6.92;83.72;100402.84;5130482;28;19968;-85
2022/11/28 10:15:10;;;;;;;;;;;;;;;6.89;80.54;100399.28;5113808;28;19955;-84
2022/11/28 10:17:47;;;;;;;;;;;;;;;6.69;81.85;100407.81;5112718;27;19934;-85
2022/11/28 10:20:17;;;;;;;;;;;;;;;6.68;83.76;100395.56;5133979;27;19950;-84
2022/11/28 10:22:45;;;;;;;;;;;;;;;6.89;83.66;100391.41;5120741;27;19918;-85
2022/11/28 10:25:14;;;;;;;;;;;;;;;6.48;81.81;100395.31;5122701;27;19951;-85
2022/11/28 10:27:40;;;;;;;;;;;;;;;6.72;82.42;100386.88;5100562;27;20339;-85
2022/11/28 10:30:15;;;;;;;;;;;;;;;6.45;80.97;100382.19;5133988;27;19915;-86
2022/11/28 10:32:43;;;;;;;;;;;;;;;6.88;82.43;100381.81;5121445;27;19924;-85
2022/11/28 10:35:11;;;;;;;;;;;;;;;7.08;83.64;100369.78;5105107;28;19968;-85
2022/11/28 10:37:37;;;;;;;;;;;;;;;7.25;82.25;100366.44;5129525;27;19936;-85
2022/11/28 10:40:11;;;;;;;;;;;;;;;7.28;81.54;100362.09;5120637;27;19920;-84
2022/11/28 10:42:45;;;;;;;;;;;;;;;7.11;81.26;100363.69;5121777;27;19918;-85
2022/11/28 10:45:10;;;;;;;;;;;;;;;7.26;80.79;100360.31;5095579;28;19916;-87
2022/11/28 10:47:54;;;;;;;;;;;;;;;7.05;83.18;100364.50;5133704;27;20026;-85
2022/11/28 10:50:39;;;;;;;;;;;;;;;7.43;83.42;100361.38;5133829;27;20010;-84
2022/11/28 10:53:14;;;;;;;;;;;;;;;7.47;82.02;100355.25;5116932;27;20009;-83
2022/11/28 10:55:59;;;;;;;;;;;;;;;7.55;82.50;100350.06;5134058;27;19933;-84
2022/11/28 10:58:43;;;;;;;;;;;;;;;6.78;80.42;100352.88;5135116;27;19925;-84
2022/11/28 11:01:09;;;;;;;;;;;;;;;6.98;84.12;100350.47;5133821;27;20591;-83
2022/11/28 11:03:35;;;;;;;;;;;;;;;7.08;82.47;100345.31;5131620;27;19918;-84
2022/11/28 11:06:01;;;;;;;;;;;;;;;7.31;79.23;100340.25;5134391;27;19922;-84
2022/11/28 11:08:28;;;;;;;;;;;;;;;7.42;79.02;100343.84;5132873;27;20438;-85
2022/11/28 11:11:09;;;;;;;;;;;;;;;7.30;79.24;100343.75;5142683;27;19911;-84
2022/11/28 11:13:54;;;;;;;;;;;;;;;7.50;81.31;100338.66;5155177;27;20399;-85
2022/11/28 11:16:19;;;;;;;;;;;;;;;7.68;80.60;100337.94;5145617;27;19916;-84
2022/11/28 11:18:45;;;;;;;;;;;;;;;7.62;77.42;100340.50;5115864;27;19977;-84
2022/11/28 11:21:16;;;;;;;;;;;;;;;7.37;78.48;100331.53;5115354;27;19953;-84
2022/11/28 11:23:42;;;;;;;;;;;;;;;7.43;79.46;100327.25;5134038;27;20400;-84
2022/11/28 11:26:18;;;;;;;;;;;;;;;7.68;77.39;100327.41;5132907;27;19922;-84
2022/11/28 11:28:47;;;;;;;;;;;;;;;7.51;76.81;100324.66;5132549;27;19976;-82
2022/11/28 11:31:16;;;;;;;;;;;;;;;7.73;77.45;100323.06;5133266;27;19918;-83
2022/11/28 11:33:41;;;;;;;;;;;;;;;7.89;75.24;100324.94;5134014;27;19915;-84
2022/11/28 11:36:20;;;;;;;;;;;;;;;7.88;75.38;100322.28;5134581;27;19912;-86
2022/11/28 11:38:45;;;;;;;;;;;;;;;7.89;76.04;100314.44;5133824;27;19922;-85
2022/11/28 11:41:26;;;;;;;;;;;;;;;7.89;75.32;100314.44;5133974;27;19911;-84
2022/11/28 11:43:51;;;;;;;;;;;;;;;7.46;74.98;100306.25;5124819;27;19972;-85
2022/11/28 11:46:17;;;;;;;;;;;;;;;7.43;76.33;100308.88;5131350;27;19916;-85
2022/11/28 11:48:43;;;;;;;;;;;;;;;8.05;74.92;100312.75;5131218;27;19955;-85
2022/11/28 11:51:28;;;;;;;;;;;;;;;8.06;74.63;100313.63;5132245;27;19915;-85
2022/11/28 11:54:03;;;;;;;;;;;;;;;7.65;74.47;100315.13;5116924;27;19938;-84
2022/11/28 11:56:30;;;;;;;;;;;;;;;7.85;74.94;100317.03;5113431;28;19916;-83
2022/11/28 11:58:57;;;;;;;;;;;;;;;7.82;74.65;100320.50;5122590;27;20400;-83
2022/11/28 12:01:23;;;;;;;;;;;;;;;7.61;75.18;100305.47;5133884;27;20448;-83
2022/11/28 12:03:53;;;;;;;;;;;;;;;8.09;75.30;100307.50;5132854;27;20006;-83
2022/11/28 12:06:26;;;;;;;;;;;;;;;8.20;74.67;100316.31;5133943;27;19911;-86
2022/11/28 12:08:53;;;;;;;;;;;;;;;8.28;74.10;100304.09;5098463;27;19916;-85
2022/11/28 12:11:24;;;;;;;;;;;;;;;7.87;74.90;100303.00;5133576;27;19918;-85
2022/11/28 12:13:50;;;;;;;;;;;;;;;8.19;75.11;100304.94;5133451;27;19912;-84
2022/11/28 12:16:21;;;;;;;;;;;;;;;8.14;75.49;100298.78;5132257;27;19914;-85
2022/11/28 12:18:56;;;;;;;;;;;;;;;8.18;74.82;100302.28;5131936;27;19919;-84
2022/11/28 12:21:33;;;;;;;;;;;;;;;8.22;75.95;100302.31;5129207;27;19969;-85
2022/11/28 12:24:04;;;;;;;;;;;;;;;7.91;75.63;100297.78;5102349;27;19919;-85
2022/11/28 12:26:38;;;;;;;;;;;;;;;7.65;77.99;100306.41;5131842;27;19922;-84
2022/11/28 12:29:06;;;;;;;;;;;;;;;7.89;76.70;100296.03;5112410;28;19930;-85
2022/11/28 12:31:38;;;;;;;;;;;;;;;7.74;76.26;100300.31;5120873;27;19918;-85
2022/11/28 12:34:22;;;;;;;;;;;;;;;7.89;75.75;100303.91;5114413;27;19947;-84
2022/11/28 12:37:06;;;;;;;;;;;;;;;8.06;75.30;100303.09;5123606;27;20372;-85
2022/11/28 12:39:31;;;;;;;;;;;;;;;7.61;75.87;100302.84;5120029;27;19915;-86
2022/11/28 12:41:59;;;;;;;;;;;;;;;7.45;75.96;100306.25;5132956;27;19942;-84
2022/11/28 12:44:49;;;;;;;;;;;;;;;7.64;77.36;100304.63;5132723;27;19916;-84
2022/11/28 12:47:33;;;;;;;;;;;;;;;8.03;75.27;100309.25;5131867;27;20002;-84
2022/11/28 12:50:01;;;;;;;;;;;;;;;7.65;76.04;100307.25;5133074;27;19968;-82
2022/11/28 12:52:35;;;;;;;;;;;;;;;7.55;76.10;100315.94;5118593;27;19915;-83
2022/11/28 12:55:23;;;;;;;;;;;;;;;7.55;77.98;100307.19;5116002;27;19931;-83